createdAt,value
2022-10-03T00:01:13.518Z,100411.80
2022-10-03T00:03:55.636Z,100405.23
2022-10-03T00:06:41.974Z,100393.78
2022-10-03T00:09:42.628Z,100409.79
2022-10-03T00:12:36.368Z,100415.55
2022-10-03T00:15:18.518Z,100415.16
2022-10-03T00:17:58.760Z,100414.56
2022-10-03T00:20:55.523Z,100419.27
2022-10-03T00:23:37.689Z,100412.92
2022-10-03T00:26:40.388Z,100415.52
2022-10-03T00:29:41.971Z,100419.95
2022-10-03T00:32:27.874Z,100418.06
2022-10-03T00:35:16.151Z,100418.38
2022-10-03T00:38:00.235Z,100417.27
2022-10-03T00:41:04.321Z,100418.25
2022-10-03T00:44:00.169Z,100416.92
2022-10-03T00:46:54.343Z,100410.66
2022-10-03T00:49:59.012Z,100416.02
2022-10-03T00:52:48.317Z,100414.95
2022-10-03T00:55:32.537Z,100417.20
2022-10-03T00:58:27.563Z,100422.95
2022-10-03T01:01:21.681Z,100423.36
2022-10-03T01:04:05.764Z,100417.74
2022-10-03T01:06:47.490Z,100420.12
2022-10-03T01:09:37.542Z,100419.64
2022-10-03T01:12:36.099Z,100422.63
2022-10-03T01:15:19.793Z,100414.60
2022-10-03T01:18:09.246Z,100421.07
2022-10-03T01:20:53.993Z,100427.77
2022-10-03T01:23:53.614Z,100428.66
2022-10-03T01:26:47.802Z,100430.43
2022-10-03T01:29:45.630Z,100414.23
2022-10-03T01:32:26.167Z,100425.39
2022-10-03T01:35:08.202Z,100415.52
2022-10-03T01:37:51.485Z,100430.17
2022-10-03T01:40:30.716Z,100426.83
2022-10-03T01:43:13.666Z,100423.86
2022-10-03T01:45:54.144Z,100430.41
2022-10-03T01:48:35.121Z,100410.40
2022-10-03T01:51:13.700Z,100433.10
2022-10-03T01:53:57.129Z,100426.36
2022-10-03T01:56:34.451Z,100434.64
2022-10-03T01:59:14.162Z,100428.16
2022-10-03T02:01:52.920Z,100426.72
2022-10-03T02:04:41.205Z,100424.05
2022-10-03T02:07:27.076Z,100418.83
2022-10-03T02:10:08.335Z,100417.76
2022-10-03T02:12:49.540Z,100407.36
2022-10-03T02:15:25.938Z,100434.96
2022-10-03T02:18:03.515Z,100421.33
2022-10-03T02:20:44.360Z,100437.45
2022-10-03T02:23:39.298Z,100438.61
2022-10-03T02:26:34.618Z,100428.25
2022-10-03T02:29:40.709Z,100433.77
2022-10-03T02:32:46.507Z,100430.50
2022-10-03T02:35:39.780Z,100439.65
2022-10-03T02:38:29.579Z,100430.64
2022-10-03T02:41:33.064Z,100427.15
2022-10-03T02:44:36.496Z,100429.94
2022-10-03T02:47:56.828Z,100445.41
2022-10-03T02:51:08.593Z,100453.24
2022-10-03T02:53:58.656Z,100463.89
2022-10-03T02:57:09.148Z,100465.92
2022-10-03T02:59:58.523Z,100471.91
2022-10-03T03:03:07.653Z,100476.59
2022-10-03T03:06:17.984Z,100472.90
2022-10-03T03:09:23.546Z,100472.91
2022-10-03T03:12:21.178Z,100470.36
2022-10-03T03:15:32.759Z,100469.83
2022-10-03T03:18:14.127Z,100474.43
2022-10-03T03:21:07.437Z,100473.08
2022-10-03T03:23:59.799Z,100476.30
2022-10-03T03:26:51.833Z,100480.63
2022-10-03T03:29:32.168Z,100482.70
2022-10-03T03:32:15.235Z,100484.20
2022-10-03T03:35:04.523Z,100485.45
2022-10-03T03:37:47.968Z,100489.41
2022-10-03T03:40:36.495Z,100487.04
2022-10-03T03:43:27.338Z,100480.36
2022-10-03T03:46:13.828Z,100484.23
2022-10-03T03:49:18.324Z,100477.90
2022-10-03T03:52:02.697Z,100493.33
2022-10-03T03:54:55.967Z,100488.04
2022-10-03T03:57:48.368Z,100489.87
2022-10-03T04:00:31.429Z,100491.31
2022-10-03T04:03:22.261Z,100499.25
2022-10-03T04:06:07.830Z,100495.35
2022-10-03T04:09:01.225Z,100493.63
2022-10-03T04:11:49.209Z,100500.84
2022-10-03T04:14:41.849Z,100464.04
2022-10-03T04:17:49.612Z,100494.93
2022-10-03T04:20:33.539Z,100493.08
2022-10-03T04:23:23.066Z,100498.60
2022-10-03T04:26:07.536Z,100494.45
2022-10-03T04:28:54.587Z,100498.86
2022-10-03T04:31:41.354Z,100500.36
2022-10-03T04:34:29.771Z,100496.79
2022-10-03T04:37:28.462Z,100500.55
2022-10-03T04:40:11.874Z,100498.77
2022-10-03T04:42:53.915Z,100500.04
2022-10-03T04:45:41.026Z,100508.64
2022-10-03T04:48:22.945Z,100500.65
2022-10-03T04:51:04.884Z,100508.41
2022-10-03T04:53:56.720Z,100504.95
2022-10-03T04:56:44.424Z,100513.30
2022-10-03T04:59:36.606Z,100507.45
2022-10-03T05:02:25.775Z,100510.11
2022-10-03T05:05:57.670Z,100511.69
2022-10-03T05:08:41.152Z,100520.54
2022-10-03T05:11:27.443Z,100520.46
2022-10-03T05:14:10.885Z,100523.24
2022-10-03T05:16:50.714Z,100511.39
2022-10-03T05:19:52.303Z,100517.03
2022-10-03T05:22:42.261Z,100519.50
2022-10-03T05:25:29.371Z,100517.03
2022-10-03T05:28:13.717Z,100524.06
2022-10-03T05:30:54.503Z,100519.21
2022-10-03T05:33:40.355Z,100523.81
2022-10-03T05:36:29.662Z,100526.38
2022-10-03T05:39:31.431Z,100526.20
2022-10-03T05:42:23.686Z,100525.67
2022-10-03T05:45:04.342Z,100538.64
2022-10-03T05:47:50.337Z,100539.27
2022-10-03T05:50:43.449Z,100524.89
2022-10-03T05:53:44.090Z,100537.09
2022-10-03T05:56:41.062Z,100545.05
2022-10-03T05:59:39.136Z,100540.84
2022-10-03T06:02:40.268Z,100537.81
2022-10-03T06:08:41.929Z,100544.41
2022-10-03T06:11:28.583Z,100553.29
2022-10-03T06:14:25.030Z,100554.52
2022-10-03T06:17:08.943Z,100559.16
2022-10-03T06:19:52.527Z,100566.02
2022-10-03T06:22:50.746Z,100556.67
2022-10-03T06:26:01.712Z,100560.55
2022-10-03T06:29:17.252Z,100556.50
2022-10-03T06:32:16.006Z,100564.09
2022-10-03T06:35:25.181Z,100566.33
2022-10-03T06:38:24.933Z,100575.70
2022-10-03T06:41:27.854Z,100581.16
2022-10-03T06:44:16.885Z,100578.62
2022-10-03T06:47:23.020Z,100578.09
2022-10-03T06:50:20.557Z,100582.05
2022-10-03T06:53:16.792Z,100584.88
2022-10-03T06:56:27.798Z,100578.69
2022-10-03T06:59:29.738Z,100589.65
2022-10-03T07:02:28.538Z,100595.40
2022-10-03T07:05:38.624Z,100593.55
2022-10-03T07:08:54.570Z,100599.32
2022-10-03T07:11:44.644Z,100602.38
2022-10-03T07:17:55.646Z,100588.48
2022-10-03T07:21:00.430Z,100592.05
2022-10-03T07:23:47.709Z,100587.16
2022-10-03T07:26:41.356Z,100584.98
2022-10-03T07:29:30.205Z,100584.83
2022-10-03T07:32:20.282Z,100602.92
2022-10-03T07:35:50.310Z,100600.23
2022-10-03T07:39:01.139Z,100616.44
2022-10-03T07:42:00.802Z,100593.48
2022-10-03T07:45:04.156Z,100635.56
2022-10-03T07:48:03.622Z,100637.88
2022-10-03T07:50:58.188Z,100639.59
2022-10-03T07:54:01.952Z,100648.47
2022-10-03T07:56:57.268Z,100647.48
2022-10-03T07:59:55.303Z,100658.02
2022-10-03T08:02:48.525Z,100655.29
2022-10-03T08:05:40.018Z,100657.81
2022-10-03T08:08:34.949Z,100661.72
2022-10-03T08:11:26.068Z,100656.42
2022-10-03T08:14:11.768Z,100664.68
2022-10-03T08:17:02.390Z,100660.91
2022-10-03T08:19:51.144Z,100645.39
2022-10-03T08:22:42.813Z,100651.30
2022-10-03T08:25:29.150Z,100656.02
2022-10-03T08:28:23.019Z,100664.20
2022-10-03T08:31:26.706Z,100663.16
2022-10-03T08:34:34.024Z,100662.61
2022-10-03T08:37:50.534Z,100676.71
2022-10-03T08:41:08.808Z,100667.54
2022-10-03T08:44:09.343Z,100668.76
2022-10-03T08:47:11.149Z,100668.23
2022-10-03T08:50:14.412Z,100672.39
2022-10-03T08:53:11.136Z,100674.11
2022-10-03T08:55:57.660Z,100670.20
2022-10-03T08:59:00.265Z,100675.59
2022-10-03T09:01:58.026Z,100666.67
2022-10-03T09:05:00.181Z,100679.07
2022-10-03T09:07:53.933Z,100669.63
2022-10-03T09:11:13.916Z,100674.89
2022-10-03T09:14:20.536Z,100673.59
2022-10-03T09:17:13.344Z,100676.40
2022-10-03T09:20:08.855Z,100688.24
2022-10-03T09:22:59.428Z,100684.40
2022-10-03T09:26:06.732Z,100689.55
2022-10-03T09:28:49.824Z,100683.89
2022-10-03T09:31:44.986Z,100690.36
2022-10-03T09:34:42.658Z,100685.40
2022-10-03T09:37:44.207Z,100691.90
2022-10-03T09:41:02.373Z,100697.65
2022-10-03T09:44:02.258Z,100698.66
2022-10-03T09:47:22.292Z,100702.83
2022-10-03T09:50:30.280Z,100700.69
2022-10-03T09:53:30.103Z,100706.79
2022-10-03T09:56:29.780Z,100699.73
2022-10-03T09:59:20.857Z,100706.29
2022-10-03T10:02:05.035Z,100712.09
2022-10-03T10:05:01.885Z,100706.17
2022-10-03T10:07:49.004Z,100707.48
2022-10-03T10:10:53.407Z,100708.88
2022-10-03T10:14:13.274Z,100715.20
2022-10-03T10:17:12.518Z,100713.84
2022-10-03T10:20:07.764Z,100715.88
2022-10-03T10:23:18.571Z,100721.08
2022-10-03T10:26:12.525Z,100724.33
2022-10-03T10:29:18.525Z,100750.98
2022-10-03T10:32:26.276Z,100753.39
2022-10-03T10:35:40.437Z,100708.17
2022-10-03T10:38:37.642Z,100745.11
2022-10-03T10:41:47.636Z,100749.79
2022-10-03T10:44:59.129Z,100723.64
2022-10-03T10:48:24.639Z,100751.21
2022-10-03T10:51:31.455Z,100749.94
2022-10-03T10:54:41.714Z,100749.30
2022-10-03T10:57:27.533Z,100747.98
2022-10-03T11:00:23.508Z,100749.65
2022-10-03T11:03:31.218Z,100753.54
2022-10-03T11:06:40.033Z,100755.25
2022-10-03T11:09:31.394Z,100753.84
2022-10-03T11:12:42.017Z,100756.36
2022-10-03T11:15:55.791Z,100746.20
2022-10-03T11:18:59.609Z,100762.65
2022-10-03T11:22:06.910Z,100761.70
2022-10-03T11:25:21.032Z,100758.48
2022-10-03T11:28:34.716Z,100760.36
2022-10-03T11:31:40.414Z,100771.03
2022-10-03T11:34:29.191Z,100774.99
2022-10-03T11:37:12.501Z,100771.16
2022-10-03T11:39:55.068Z,100768.48
2022-10-03T11:42:39.898Z,100771.60
2022-10-03T11:45:26.070Z,100773.60
2022-10-03T11:48:14.873Z,100781.06
2022-10-03T11:50:52.370Z,100781.73
2022-10-03T11:53:44.456Z,100777.86
2022-10-03T11:56:39.123Z,100761.69
2022-10-03T11:59:36.188Z,100775.67
2022-10-03T12:02:17.941Z,100778.81
2022-10-03T12:04:57.461Z,100783.26
2022-10-03T12:08:14.012Z,100778.64
2022-10-03T12:10:57.963Z,100786.38
2022-10-03T12:13:38.986Z,100780.30
2022-10-03T12:16:22.333Z,100782.02
2022-10-03T12:18:59.677Z,100781.33
2022-10-03T12:21:43.562Z,100776.53
2022-10-03T12:24:38.286Z,100764.91
2022-10-03T12:27:21.948Z,100766.50
2022-10-03T12:30:00.240Z,100754.42
2022-10-03T12:32:41.213Z,100763.05
2022-10-03T12:35:30.597Z,100771.23
2022-10-03T12:38:16.744Z,100781.72
2022-10-03T12:40:59.861Z,100781.36
2022-10-03T12:43:48.641Z,100780.00
2022-10-03T12:46:31.672Z,100788.02
2022-10-03T12:49:08.279Z,100787.33
2022-10-03T12:51:54.284Z,100787.33
2022-10-03T12:54:48.475Z,100791.41
2022-10-03T12:57:53.288Z,100800.42
2022-10-03T13:00:28.829Z,100800.70
2022-10-03T13:03:17.522Z,100803.25
2022-10-03T13:06:58.296Z,100800.39
2022-10-03T13:09:36.444Z,100801.23
2022-10-03T13:12:17.348Z,100809.56
2022-10-03T13:25:23.469Z,100813.85
2022-10-03T13:28:06.294Z,100824.00
2022-10-03T13:30:47.383Z,100817.63
2022-10-03T13:33:23.586Z,100820.54
2022-10-03T13:36:00.265Z,100814.79
2022-10-03T13:39:02.737Z,100823.01
2022-10-03T13:41:47.021Z,100820.42
2022-10-03T13:44:23.861Z,100820.52
2022-10-03T13:47:01.656Z,100824.37
2022-10-03T13:49:38.373Z,100817.63
2022-10-03T13:52:23.566Z,100812.98
2022-10-03T13:55:02.447Z,100824.55
2022-10-03T13:57:39.037Z,100802.58
2022-10-03T14:00:15.814Z,100819.17
2022-10-03T14:03:01.767Z,100796.74
2022-10-03T14:05:58.676Z,100819.48
2022-10-03T14:08:56.737Z,100828.05
2022-10-03T14:11:39.645Z,100818.07
2022-10-03T14:14:35.640Z,100820.74
2022-10-03T14:17:13.067Z,100823.42
2022-10-03T14:20:03.302Z,100827.58
2022-10-03T14:22:44.659Z,100824.05
2022-10-03T14:25:24.256Z,100831.25
2022-10-03T14:27:59.067Z,100826.64
2022-10-03T14:30:33.072Z,100826.93
2022-10-03T14:33:18.754Z,100827.19
2022-10-03T14:36:04.831Z,100832.66
2022-10-03T14:39:00.822Z,100835.38
2022-10-03T14:41:45.789Z,100833.04
2022-10-03T14:44:22.677Z,100839.11
2022-10-03T14:47:01.234Z,100827.04
2022-10-03T14:49:57.806Z,100841.47
2022-10-03T14:52:35.599Z,100836.73
2022-10-03T14:55:31.746Z,100829.30
2022-10-03T15:06:50.453Z,100827.24
2022-10-03T15:09:26.514Z,100840.77
2022-10-03T15:12:06.628Z,100837.16
2022-10-03T15:14:43.751Z,100839.11
2022-10-03T15:17:25.461Z,100838.41
2022-10-03T15:20:00.442Z,100820.11
2022-10-03T15:22:36.552Z,100823.48
2022-10-03T15:25:14.250Z,100841.60
2022-10-03T15:27:50.374Z,100844.50
2022-10-03T15:30:30.665Z,100845.45
2022-10-03T15:33:13.264Z,100843.92
2022-10-03T15:35:48.164Z,100839.85
2022-10-03T15:38:26.425Z,100844.16
2022-10-03T15:41:10.808Z,100841.25
2022-10-03T15:43:52.473Z,100841.10
2022-10-03T15:46:34.820Z,100842.31
2022-10-03T15:49:16.764Z,100838.58
2022-10-03T15:51:50.756Z,100842.63
2022-10-03T15:54:26.113Z,100824.94
2022-10-03T15:57:00.598Z,100842.13
2022-10-03T15:59:37.077Z,100831.80
2022-10-03T16:02:19.130Z,100848.30
2022-10-03T16:04:57.311Z,100850.13
2022-10-03T16:07:38.587Z,100833.80
2022-10-03T16:10:21.159Z,100850.67
2022-10-03T16:13:06.202Z,100842.32
2022-10-03T16:15:55.646Z,100853.24
2022-10-03T16:18:52.006Z,100852.79
2022-10-03T16:21:36.920Z,100854.08
2022-10-03T16:24:17.876Z,100862.35
2022-10-03T16:26:57.063Z,100860.14
2022-10-03T16:29:34.550Z,100862.17
2022-10-03T16:32:09.727Z,100859.61
2022-10-03T16:34:46.157Z,100859.27
2022-10-03T16:37:22.869Z,100842.70
2022-10-03T16:40:03.777Z,100860.52
2022-10-03T16:42:45.274Z,100859.58
2022-10-03T16:45:30.444Z,100863.43
2022-10-03T16:48:28.935Z,100860.57
2022-10-03T16:51:03.892Z,100857.65
2022-10-03T16:53:36.211Z,100853.77
2022-10-03T16:56:14.187Z,100857.18
2022-10-03T16:58:52.497Z,100857.77
2022-10-03T17:01:33.407Z,100861.98
2022-10-03T17:04:17.532Z,100861.02
2022-10-03T17:06:51.813Z,100863.38
2022-10-03T17:09:32.805Z,100858.80
2022-10-03T17:12:08.239Z,100860.81
2022-10-03T17:14:44.763Z,100863.85
2022-10-03T17:17:31.659Z,100865.25
2022-10-03T17:20:07.078Z,100864.37
2022-10-03T17:22:44.335Z,100866.79
2022-10-03T17:25:42.091Z,100867.52
2022-10-03T17:28:21.924Z,100861.30
2022-10-03T17:30:59.491Z,100864.80
2022-10-03T17:33:38.302Z,100856.60
2022-10-03T17:36:35.887Z,100862.63
2022-10-03T17:39:14.647Z,100860.60
2022-10-03T17:41:54.017Z,100857.57
2022-10-03T17:44:35.610Z,100844.23
2022-10-03T17:47:20.519Z,100853.60
2022-10-03T17:50:02.973Z,100851.65
2022-10-03T17:52:40.995Z,100858.09
2022-10-03T17:55:20.259Z,100854.17
2022-10-03T18:06:53.031Z,100849.33
2022-10-03T18:09:30.976Z,100847.73
2022-10-03T18:12:18.874Z,100847.30
2022-10-03T18:15:13.514Z,100849.57
2022-10-03T18:17:59.786Z,100838.70
2022-10-03T18:20:46.655Z,100851.59
2022-10-03T18:23:53.132Z,100848.64
2022-10-03T18:26:29.792Z,100849.83
2022-10-03T18:29:17.193Z,100853.88
2022-10-03T18:31:57.693Z,100851.25
2022-10-03T18:34:34.947Z,100849.58
2022-10-03T18:37:34.679Z,100849.88
2022-10-03T18:40:15.331Z,100848.48
2022-10-03T18:42:50.510Z,100849.88
2022-10-03T18:45:27.262Z,100844.16
2022-10-03T18:48:06.576Z,100847.14
2022-10-03T18:50:53.567Z,100842.93
2022-10-03T18:53:34.503Z,100842.35
2022-10-03T18:56:10.977Z,100844.39
2022-10-03T18:58:46.638Z,100828.83
2022-10-03T19:01:25.741Z,100833.77
2022-10-03T19:04:04.118Z,100843.45
2022-10-03T19:06:46.943Z,100849.67
2022-10-03T19:09:26.080Z,100847.02
2022-10-03T19:12:05.454Z,100852.02
2022-10-03T19:14:46.713Z,100855.45
2022-10-03T19:17:27.230Z,100857.04
2022-10-03T19:20:17.440Z,100858.71
2022-10-03T19:23:00.892Z,100861.04
2022-10-03T19:25:39.373Z,100858.83
2022-10-03T19:28:20.990Z,100856.85
2022-10-03T19:31:03.896Z,100859.52
2022-10-03T19:33:44.368Z,100859.19
2022-10-03T19:36:20.910Z,100859.80
2022-10-03T19:38:54.928Z,100862.16
2022-10-03T19:41:33.403Z,100859.20
2022-10-03T19:44:11.496Z,100857.17
2022-10-03T19:47:01.887Z,100857.23
2022-10-03T19:49:48.894Z,100853.16
2022-10-03T19:52:32.220Z,100855.88
2022-10-03T19:55:13.032Z,100859.98
2022-10-03T19:57:50.794Z,100858.52
2022-10-03T20:00:29.945Z,100859.98
2022-10-03T20:03:15.834Z,100865.88
2022-10-03T20:05:55.913Z,100864.45
2022-10-03T20:08:33.988Z,100863.65
2022-10-03T20:11:17.133Z,100869.81
2022-10-03T20:13:51.405Z,100861.08
2022-10-03T20:16:27.104Z,100866.52
2022-10-03T20:19:42.984Z,100867.73
2022-10-03T20:22:17.080Z,100865.23
2022-10-03T20:24:50.573Z,100857.64
2022-10-03T20:27:37.766Z,100861.25
2022-10-03T20:30:32.475Z,100855.69
2022-10-03T20:33:05.835Z,100859.21
2022-10-03T20:35:52.601Z,100859.50
2022-10-03T20:38:33.681Z,100855.56
2022-10-03T20:41:10.549Z,100855.76
2022-10-03T20:43:48.266Z,100854.63
2022-10-03T20:46:25.376Z,100849.67
2022-10-03T20:49:17.013Z,100857.39
2022-10-03T20:52:00.257Z,100853.35
2022-10-03T20:54:38.256Z,100854.09
2022-10-03T20:57:19.806Z,100858.20
2022-10-03T20:59:56.874Z,100845.52
2022-10-03T21:02:37.593Z,100842.39
2022-10-03T21:05:21.287Z,100855.67
2022-10-03T21:07:56.227Z,100853.08
2022-10-03T21:10:33.002Z,100851.16
2022-10-03T21:13:09.672Z,100849.67
2022-10-03T21:15:47.350Z,100854.02
2022-10-03T21:18:26.533Z,100852.63
2022-10-03T21:21:07.783Z,100855.70
2022-10-03T21:23:44.507Z,100857.84
2022-10-03T21:26:21.848Z,100858.42
2022-10-03T21:29:17.897Z,100849.26
2022-10-03T21:31:58.582Z,100850.05
2022-10-03T21:34:40.309Z,100847.40
2022-10-03T21:37:20.921Z,100848.95
2022-10-03T21:40:07.820Z,100804.80
2022-10-03T21:42:46.549Z,100845.46
2022-10-03T21:45:31.800Z,100845.90
2022-10-03T21:48:11.443Z,100841.30
2022-10-03T21:50:53.800Z,100838.33
2022-10-03T21:53:39.411Z,100841.94
2022-10-03T21:56:38.866Z,100837.02
2022-10-03T21:59:25.179Z,100834.05
2022-10-03T22:02:02.874Z,100831.46
2022-10-03T22:04:42.633Z,100832.76
2022-10-03T22:07:17.371Z,100813.56
2022-10-03T22:09:52.142Z,100827.10
2022-10-03T22:12:28.432Z,100832.80
2022-10-03T22:15:06.907Z,100833.98
2022-10-03T22:17:46.634Z,100832.93
2022-10-03T22:20:22.886Z,100832.35
2022-10-03T22:23:03.320Z,100834.69
2022-10-03T22:25:48.294Z,100837.72
2022-10-03T22:28:32.118Z,100835.11
2022-10-03T22:31:17.941Z,100839.80
2022-10-03T22:34:06.019Z,100840.25
2022-10-03T22:36:39.178Z,100840.41
2022-10-03T22:39:13.634Z,100839.48
2022-10-03T22:41:47.968Z,100834.61
2022-10-03T22:44:22.726Z,100833.16
2022-10-03T22:47:00.404Z,100830.80
2022-10-03T22:49:38.675Z,100815.14
2022-10-03T22:52:17.714Z,100828.05
2022-10-03T22:54:52.106Z,100824.48
2022-10-03T22:57:25.865Z,100822.47
2022-10-03T23:00:01.931Z,100809.20
2022-10-03T23:02:39.475Z,100825.23
2022-10-03T23:05:15.334Z,100825.08
2022-10-03T23:08:07.969Z,100823.02
2022-10-03T23:10:49.614Z,100821.95
2022-10-03T23:13:28.770Z,100823.30
2022-10-03T23:16:14.893Z,100829.50
2022-10-03T23:19:10.049Z,100820.87
2022-10-03T23:21:48.633Z,100829.01
2022-10-03T23:24:26.679Z,100820.77
2022-10-03T23:27:31.702Z,100825.96
2022-10-03T23:30:47.227Z,100826.36
2022-10-03T23:33:40.664Z,100828.63
2022-10-03T23:36:18.037Z,100829.19
2022-10-03T23:39:02.915Z,100830.32
2022-10-03T23:41:45.219Z,100829.77
2022-10-03T23:44:36.584Z,100833.17
2022-10-03T23:47:14.295Z,100834.95
2022-10-03T23:49:49.671Z,100829.88
2022-10-03T23:52:25.544Z,100834.42
2022-10-03T23:55:02.879Z,100832.94
2022-10-03T23:57:39.011Z,100814.55
